createdAt,value
2022-11-19T00:00:09.063Z,99464.13
2022-11-19T00:03:12.978Z,99479.00
2022-11-19T00:06:18.364Z,99460.09
2022-11-19T00:09:21.020Z,99454.47
2022-11-19T00:12:42.102Z,99478.84
2022-11-19T00:15:44.497Z,99454.81
2022-11-19T00:18:46.973Z,99477.53
2022-11-19T00:21:50.193Z,99481.97
2022-11-19T00:24:52.656Z,99488.59
2022-11-19T00:27:58.391Z,99500.31
2022-11-19T00:31:08.956Z,99513.56
2022-11-19T00:34:12.231Z,99518.38
2022-11-19T00:37:14.676Z,99526.41
2022-11-19T00:40:17.287Z,99503.72
2022-11-19T00:43:38.387Z,99524.94
2022-11-19T00:46:40.771Z,99522.44
2022-11-19T00:49:43.142Z,99529.03
2022-11-19T00:52:45.486Z,99548.22
2022-11-19T00:55:47.921Z,99531.16
2022-11-19T00:58:50.882Z,99551.91
2022-11-19T01:01:53.321Z,99539.41
2022-11-19T01:04:55.833Z,99541.25
2022-11-19T01:07:58.212Z,99549.97
2022-11-19T01:11:08.267Z,99558.59
2022-11-19T01:14:10.680Z,99574.03
2022-11-19T01:17:13.077Z,99567.69
2022-11-19T01:20:15.966Z,99551.97
2022-11-19T01:23:18.523Z,99571.94
2022-11-19T01:26:21.307Z,99585.94
2022-11-19T01:29:23.794Z,99584.91
2022-11-19T01:32:26.214Z,99587.66
2022-11-19T01:35:28.652Z,99591.88
2022-11-19T01:38:31.837Z,99602.63
2022-11-19T01:41:34.612Z,99606.63
2022-11-19T01:45:05.868Z,99618.91
2022-11-19T01:48:12.033Z,99616.88
2022-11-19T01:51:22.347Z,99635.94
2022-11-19T01:54:40.236Z,99662.75
2022-11-19T01:57:42.743Z,99660.44
2022-11-19T02:00:45.146Z,99663.81
2022-11-19T02:03:48.254Z,99637.69
2022-11-19T02:06:50.708Z,99671.13
2022-11-19T02:09:53.184Z,99666.69
2022-11-19T02:13:26.278Z,99664.88
2022-11-19T02:17:03.107Z,99685.69
2022-11-19T02:20:31.891Z,99684.16
2022-11-19T02:23:46.220Z,99680.09
2022-11-19T02:26:49.020Z,99706.88
2022-11-19T02:29:57.286Z,99710.81
2022-11-19T02:33:05.985Z,99724.09
2022-11-19T02:36:26.668Z,99722.59
2022-11-19T02:39:49.504Z,99740.25
2022-11-19T02:43:10.129Z,99751.97
2022-11-19T02:46:15.265Z,99740.31
2022-11-19T02:49:19.585Z,99749.66
2022-11-19T02:52:22.500Z,99762.31
2022-11-19T02:55:25.367Z,99767.31
2022-11-19T02:58:47.236Z,99753.66
2022-11-19T03:02:08.950Z,99749.91
2022-11-19T03:05:16.141Z,99748.97
2022-11-19T03:08:19.065Z,99751.28
2022-11-19T03:11:27.023Z,99777.72
2022-11-19T03:15:13.901Z,99811.78
2022-11-19T03:18:30.511Z,99818.19
2022-11-19T03:21:39.306Z,99830.16
2022-11-19T03:25:24.987Z,99836.22
2022-11-19T03:28:32.872Z,99835.06
2022-11-19T03:31:36.452Z,99857.84
2022-11-19T03:34:39.158Z,99868.56
2022-11-19T03:37:43.720Z,99854.66
2022-11-19T03:40:46.378Z,99856.16
2022-11-19T03:43:58.677Z,99852.28
2022-11-19T03:47:05.277Z,99863.19
2022-11-19T03:50:45.097Z,99887.31
2022-11-19T03:53:48.754Z,99864.19
2022-11-19T03:56:51.624Z,99850.13
2022-11-19T03:59:54.087Z,99855.28
2022-11-19T04:02:56.805Z,99876.91
2022-11-19T04:05:59.259Z,99881.84
2022-11-19T04:09:02.185Z,99878.91
2022-11-19T04:12:05.215Z,99887.88
2022-11-19T04:15:09.982Z,99869.41
2022-11-19T04:18:12.606Z,99900.31
2022-11-19T04:21:15.165Z,99891.94
2022-11-19T04:24:18.081Z,99904.22
2022-11-19T04:27:20.504Z,99901.69
2022-11-19T04:30:23.106Z,99905.25
2022-11-19T04:33:25.506Z,99901.03
2022-11-19T04:36:27.994Z,99894.56
2022-11-19T04:39:40.717Z,99917.13
2022-11-19T04:42:43.371Z,99906.78
2022-11-19T04:45:45.764Z,99909.13
2022-11-19T04:48:48.318Z,99929.97
2022-11-19T04:51:50.778Z,99935.72
2022-11-19T04:54:53.179Z,99951.53
2022-11-19T04:57:55.584Z,99940.47
2022-11-19T05:00:58.879Z,99938.16
2022-11-19T05:04:01.375Z,99960.00
2022-11-19T05:07:04.749Z,99938.66
2022-11-19T05:10:07.567Z,99977.91
2022-11-19T05:13:10.130Z,99971.13
2022-11-19T05:16:12.753Z,99983.69
2022-11-19T05:19:16.530Z,99982.34
2022-11-19T05:22:19.272Z,100008.44
2022-11-19T05:25:21.803Z,100018.84
2022-11-19T05:28:37.507Z,100034.78
2022-11-19T05:31:40.983Z,100027.69
2022-11-19T05:34:43.496Z,100042.59
2022-11-19T05:37:49.645Z,100055.16
2022-11-19T05:40:52.083Z,100048.41
2022-11-19T05:43:54.562Z,100072.66
2022-11-19T05:46:57.578Z,100084.44
2022-11-19T05:49:59.996Z,100079.72
2022-11-19T05:53:02.541Z,100094.28
2022-11-19T05:56:05.070Z,100084.72
2022-11-19T05:59:07.765Z,100083.41
2022-11-19T06:02:10.385Z,100088.81
2022-11-19T06:05:12.845Z,100103.16
2022-11-19T06:08:15.273Z,100112.75
2022-11-19T06:11:36.168Z,100140.56
2022-11-19T06:14:38.613Z,100155.47
2022-11-19T06:17:41.069Z,100158.91
2022-11-19T06:20:43.707Z,100164.00
2022-11-19T06:23:46.152Z,100168.75
2022-11-19T06:26:48.676Z,100165.13
2022-11-19T06:29:55.978Z,100172.19
2022-11-19T06:32:59.366Z,100171.94
2022-11-19T06:36:01.856Z,100165.94
2022-11-19T06:39:04.392Z,100163.63
2022-11-19T06:42:25.032Z,100178.47
2022-11-19T06:45:27.418Z,100196.19
2022-11-19T06:48:29.889Z,100192.84
2022-11-19T06:51:32.365Z,100198.56
2022-11-19T06:54:36.725Z,100216.06
2022-11-19T06:57:42.603Z,100225.19
2022-11-19T07:00:47.085Z,100254.38
2022-11-19T07:03:49.461Z,100243.69
2022-11-19T07:06:51.869Z,100263.47
2022-11-19T07:09:54.271Z,100236.09
2022-11-19T07:12:56.712Z,100246.03
2022-11-19T07:16:02.873Z,100229.06
2022-11-19T07:19:07.135Z,100212.94
2022-11-19T07:22:09.596Z,100218.94
2022-11-19T07:25:15.232Z,100213.97
2022-11-19T07:28:17.652Z,100244.72
2022-11-19T07:31:20.496Z,100258.28
2022-11-19T07:34:23.039Z,100276.00
2022-11-19T07:37:25.578Z,100272.84
2022-11-19T07:40:28.095Z,100271.28
2022-11-19T07:43:30.696Z,100262.47
2022-11-19T07:46:33.180Z,100249.94
2022-11-19T07:49:35.591Z,100261.94
2022-11-19T07:52:38.512Z,100256.44
2022-11-19T07:55:41.109Z,100259.34
2022-11-19T07:58:43.830Z,100279.69
2022-11-19T08:01:46.309Z,100245.50
2022-11-19T08:04:48.718Z,100263.50
2022-11-19T08:07:51.085Z,100283.59
2022-11-19T08:10:53.546Z,100290.63
2022-11-19T08:13:56.366Z,100290.09
2022-11-19T08:17:17.151Z,100286.19
2022-11-19T08:20:19.639Z,100292.97
2022-11-19T08:23:25.603Z,100285.16
2022-11-19T08:26:28.077Z,100298.75
2022-11-19T08:29:30.508Z,100301.84
2022-11-19T08:32:36.240Z,100298.47
2022-11-19T08:35:38.636Z,100301.34
2022-11-19T08:38:41.191Z,100275.25
2022-11-19T08:42:02.005Z,100319.06
2022-11-19T08:45:05.303Z,100326.38
2022-11-19T08:48:10.478Z,100326.66
2022-11-19T08:51:16.498Z,100338.34
2022-11-19T08:54:19.451Z,100342.50
2022-11-19T08:57:22.180Z,100337.31
2022-11-19T09:00:24.780Z,100344.34
2022-11-19T09:03:27.186Z,100357.13
2022-11-19T09:06:29.578Z,100361.84
2022-11-19T09:09:32.045Z,100322.94
2022-11-19T09:12:34.516Z,100359.75
2022-11-19T09:15:37.040Z,100346.72
2022-11-19T09:18:41.945Z,100361.53
2022-11-19T09:21:44.609Z,100364.13
2022-11-19T09:24:47.354Z,100367.81
2022-11-19T09:27:49.808Z,100363.41
2022-11-19T09:31:06.969Z,100369.09
2022-11-19T09:34:09.377Z,100369.66
2022-11-19T09:37:12.143Z,100365.50
2022-11-19T09:40:19.869Z,100387.94
2022-11-19T09:43:31.935Z,100382.47
2022-11-19T09:47:08.431Z,100376.47
2022-11-19T09:50:19.072Z,100377.25
2022-11-19T09:53:23.577Z,100372.06
2022-11-19T09:56:45.469Z,100381.72
2022-11-19T09:59:48.175Z,100378.03
2022-11-19T10:02:50.850Z,100392.41
2022-11-19T10:06:23.970Z,100399.72
2022-11-19T10:09:44.852Z,100388.22
2022-11-19T10:13:13.430Z,100391.59
2022-11-19T10:16:35.144Z,100367.63
2022-11-19T10:19:48.108Z,100401.53
2022-11-19T10:22:57.749Z,100385.63
2022-11-19T10:26:05.345Z,100375.69
2022-11-19T10:29:20.294Z,100387.41
2022-11-19T10:32:41.219Z,100376.75
2022-11-19T10:35:50.250Z,100392.91
2022-11-19T10:39:15.002Z,100392.06
2022-11-19T10:42:20.050Z,100385.31
2022-11-19T10:45:24.409Z,100369.94
2022-11-19T10:48:42.880Z,100384.00
2022-11-19T10:51:45.309Z,100373.56
2022-11-19T10:54:48.504Z,100392.59
2022-11-19T10:58:21.902Z,100392.91
2022-11-19T11:01:37.401Z,100381.09
2022-11-19T11:05:04.239Z,100364.16
2022-11-19T11:08:11.360Z,100375.56
2022-11-19T11:11:48.895Z,100380.81
2022-11-19T11:14:54.798Z,100388.69
2022-11-19T11:18:08.192Z,100385.78
2022-11-19T11:21:14.504Z,100394.19
2022-11-19T11:24:17.580Z,100404.38
2022-11-19T11:27:34.129Z,100387.66
2022-11-19T11:30:36.668Z,100390.28
2022-11-19T11:33:43.349Z,100401.25
2022-11-19T11:36:46.036Z,100403.31
2022-11-19T11:39:55.163Z,100418.66
2022-11-19T11:42:57.967Z,100420.56
2022-11-19T11:46:02.646Z,100436.47
2022-11-19T11:49:12.280Z,100426.75
2022-11-19T11:52:29.012Z,100451.47
2022-11-19T11:55:32.483Z,100456.22
2022-11-19T11:58:36.194Z,100447.88
2022-11-19T12:01:41.233Z,100439.28
2022-11-19T12:04:43.798Z,100485.00
2022-11-19T12:07:46.145Z,100479.03
2022-11-19T12:11:03.406Z,100489.25
2022-11-19T12:14:11.330Z,100466.94
2022-11-19T12:17:27.694Z,100464.34
2022-11-19T12:20:38.570Z,100447.56
2022-11-19T12:24:08.973Z,100466.13
2022-11-19T12:27:11.311Z,100464.06
2022-11-19T12:30:21.127Z,100458.63
2022-11-19T12:33:26.504Z,100455.97
2022-11-19T12:36:28.789Z,100475.75
2022-11-19T12:39:47.441Z,100481.81
2022-11-19T12:43:03.459Z,100475.50
2022-11-19T12:46:16.636Z,100476.66
2022-11-19T12:49:29.215Z,100477.19
2022-11-19T12:52:55.813Z,100457.25
2022-11-19T12:56:05.600Z,100460.59
2022-11-19T12:59:21.610Z,100474.41
2022-11-19T13:02:53.564Z,100469.72
2022-11-19T13:06:03.262Z,100469.47
2022-11-19T13:09:13.391Z,100462.81
2022-11-19T13:12:20.576Z,100454.19
2022-11-19T13:15:32.071Z,100449.25
2022-11-19T13:18:36.947Z,100471.22
2022-11-19T13:21:42.022Z,100481.34
2022-11-19T13:25:05.199Z,100485.03
2022-11-19T13:28:37.312Z,100478.25
2022-11-19T13:31:53.646Z,100492.59
2022-11-19T13:35:23.365Z,100477.16
2022-11-19T13:38:28.821Z,100512.91
2022-11-19T13:41:33.971Z,100494.94
2022-11-19T13:44:43.577Z,100510.06
2022-11-19T13:47:58.392Z,100495.94
2022-11-19T13:51:03.567Z,100504.09
2022-11-19T13:54:07.887Z,100497.03
2022-11-19T13:57:25.274Z,100495.16
2022-11-19T14:00:28.694Z,100495.44
2022-11-19T14:03:53.092Z,100486.63
2022-11-19T14:07:01.306Z,100516.63
2022-11-19T14:10:12.045Z,100479.28
2022-11-19T14:13:23.569Z,100520.56
2022-11-19T14:16:47.494Z,100518.25
2022-11-19T14:20:11.376Z,100514.88
2022-11-19T14:23:55.158Z,100537.31
2022-11-19T14:27:13.689Z,100542.53
2022-11-19T14:30:21.255Z,100535.75
2022-11-19T14:33:48.495Z,100546.50
2022-11-19T14:36:51.489Z,100552.78
2022-11-19T14:40:17.570Z,100547.28
2022-11-19T14:43:38.563Z,100552.50
2022-11-19T14:46:43.531Z,100549.88
2022-11-19T14:49:47.336Z,100538.38
2022-11-19T14:52:57.985Z,100545.16
2022-11-19T14:56:01.192Z,100551.47
2022-11-19T14:59:15.860Z,100568.19
2022-11-19T15:02:33.724Z,100532.13
2022-11-19T15:05:40.654Z,100544.66
2022-11-19T15:08:48.369Z,100539.97
2022-11-19T15:11:55.627Z,100570.53
2022-11-19T15:15:20.864Z,100556.94
2022-11-19T15:18:41.453Z,100550.44
2022-11-19T15:22:02.240Z,100542.59
2022-11-19T15:25:24.957Z,100535.53
2022-11-19T15:29:13.439Z,100541.03
2022-11-19T15:32:42.075Z,100516.19
2022-11-19T15:35:59.865Z,100543.13
2022-11-19T15:39:10.056Z,100546.78
2022-11-19T15:42:16.733Z,100546.25
2022-11-19T15:45:21.913Z,100553.81
2022-11-19T15:48:35.211Z,100551.47
2022-11-19T15:52:04.993Z,100546.25
2022-11-19T15:55:19.322Z,100536.31
2022-11-19T15:58:26.795Z,100527.41
2022-11-19T16:01:32.257Z,100520.09
2022-11-19T16:04:37.285Z,100545.19
2022-11-19T16:07:40.169Z,100555.09
2022-11-19T16:10:46.745Z,100559.81
2022-11-19T16:14:12.151Z,100550.66
2022-11-19T16:17:41.599Z,100567.63
2022-11-19T16:20:50.590Z,100579.13
2022-11-19T16:24:13.964Z,100585.41
2022-11-19T16:27:22.521Z,100559.50
2022-11-19T16:30:27.774Z,100576.22
2022-11-19T16:33:31.288Z,100583.78
2022-11-19T16:36:33.800Z,100544.06
2022-11-19T16:39:37.178Z,100585.38
2022-11-19T16:42:39.737Z,100572.56
2022-11-19T16:45:44.840Z,100570.72
2022-11-19T16:48:50.517Z,100586.91
2022-11-19T16:51:53.455Z,100567.03
2022-11-19T16:54:55.957Z,100557.34
2022-11-19T16:58:10.458Z,100562.78
2022-11-19T17:01:17.487Z,100553.91
2022-11-19T17:04:20.443Z,100542.06
2022-11-19T17:07:27.131Z,100534.72
2022-11-19T17:10:34.744Z,100531.28
2022-11-19T17:13:37.532Z,100540.13
2022-11-19T17:16:45.326Z,100546.94
2022-11-19T17:19:47.829Z,100561.34
2022-11-19T17:22:50.294Z,100546.34
2022-11-19T17:25:57.189Z,100569.38
2022-11-19T17:29:11.037Z,100564.31
2022-11-19T17:32:13.830Z,100570.25
2022-11-19T17:35:36.681Z,100573.41
2022-11-19T17:38:39.268Z,100579.69
2022-11-19T17:42:01.695Z,100578.63
2022-11-19T17:45:10.356Z,100594.22
2022-11-19T17:48:21.850Z,100598.34
2022-11-19T17:51:26.335Z,100576.13
2022-11-19T17:54:30.425Z,100585.91
2022-11-19T17:57:33.152Z,100558.50
2022-11-19T18:00:35.744Z,100566.06
2022-11-19T18:03:39.182Z,100558.78
2022-11-19T18:06:42.062Z,100560.34
2022-11-19T18:09:44.993Z,100554.06
2022-11-19T18:12:47.692Z,100562.97
2022-11-19T18:15:50.165Z,100562.75
2022-11-19T18:18:53.206Z,100557.47
2022-11-19T18:21:56.172Z,100548.44
2022-11-19T18:24:59.385Z,100560.13
2022-11-19T18:28:01.970Z,100528.69
2022-11-19T18:31:05.334Z,100546.44
2022-11-19T18:34:13.531Z,100514.38
2022-11-19T18:37:15.906Z,100545.97
2022-11-19T18:40:18.534Z,100539.66
2022-11-19T18:43:40.106Z,100532.59
2022-11-19T18:46:42.873Z,100532.72
2022-11-19T18:49:45.484Z,100490.66
2022-11-19T18:52:48.214Z,100513.19
2022-11-19T18:55:50.637Z,100539.25
2022-11-19T18:58:53.307Z,100543.44
2022-11-19T19:01:56.305Z,100522.22
2022-11-19T19:04:58.856Z,100531.41
2022-11-19T19:08:01.408Z,100537.09
2022-11-19T19:11:24.365Z,100518.03
2022-11-19T19:14:26.944Z,100490.88
2022-11-19T19:17:30.500Z,100497.13
2022-11-19T19:20:33.667Z,100488.66
2022-11-19T19:23:36.552Z,100485.31
2022-11-19T19:26:39.678Z,100457.81
2022-11-19T19:29:43.365Z,100494.94
2022-11-19T19:32:46.546Z,100465.13
2022-11-19T19:35:49.165Z,100465.69
2022-11-19T19:38:51.577Z,100478.81
2022-11-19T19:41:54.453Z,100489.03
2022-11-19T19:44:58.661Z,100483.59
2022-11-19T19:48:01.804Z,100492.22
2022-11-19T19:51:04.530Z,100502.41
2022-11-19T19:54:07.143Z,100483.38
2022-11-19T19:57:09.981Z,100504.28
2022-11-19T20:00:12.975Z,100499.28
2022-11-19T20:03:17.252Z,100505.53
2022-11-19T20:06:22.026Z,100515.44
2022-11-19T20:09:25.511Z,100508.09
2022-11-19T20:12:48.395Z,100519.56
2022-11-19T20:15:51.989Z,100507.81
2022-11-19T20:18:55.488Z,100497.34
2022-11-19T20:21:58.111Z,100494.75
2022-11-19T20:25:00.752Z,100513.56
2022-11-19T20:28:03.224Z,100488.00
2022-11-19T20:31:11.997Z,100512.31
2022-11-19T20:34:15.460Z,100486.41
2022-11-19T20:37:18.232Z,100488.31
2022-11-19T20:40:20.932Z,100451.75
2022-11-19T20:43:46.802Z,100465.13
2022-11-19T20:47:00.600Z,100474.53
2022-11-19T20:50:03.316Z,100442.41
2022-11-19T20:53:05.848Z,100469.63
2022-11-19T20:56:08.514Z,100469.03
2022-11-19T20:59:12.422Z,100475.78
2022-11-19T21:02:14.999Z,100485.53
2022-11-19T21:05:17.665Z,100484.53
2022-11-19T21:08:20.200Z,100487.56
2022-11-19T21:11:22.889Z,100493.63
2022-11-19T21:14:25.356Z,100469.03
2022-11-19T21:17:28.067Z,100502.25
2022-11-19T21:20:30.485Z,100505.38
2022-11-19T21:23:34.117Z,100512.69
2022-11-19T21:26:36.949Z,100518.97
2022-11-19T21:29:39.559Z,100515.84
2022-11-19T21:32:42.063Z,100515.63
2022-11-19T21:35:44.570Z,100493.19
2022-11-19T21:38:47.371Z,100477.78
2022-11-19T21:41:50.066Z,100492.09
2022-11-19T21:44:52.594Z,100493.06
2022-11-19T21:47:55.066Z,100504.81
2022-11-19T21:50:57.628Z,100504.84
2022-11-19T21:59:53.418Z,100455.50
2022-11-19T22:02:56.064Z,100479.00
2022-11-19T22:06:00.184Z,100479.38
2022-11-19T22:09:02.608Z,100479.13
2022-11-19T22:12:05.432Z,100469.22
2022-11-19T22:15:08.876Z,100467.16
2022-11-19T22:18:11.253Z,100467.16
2022-11-19T22:21:13.883Z,100453.28
2022-11-19T22:24:16.374Z,100443.94
2022-11-19T22:27:18.775Z,100422.28
2022-11-19T22:30:21.283Z,100434.03
2022-11-19T22:33:23.714Z,100423.63
2022-11-19T22:36:26.219Z,100423.13
2022-11-19T22:39:28.709Z,100427.56
2022-11-19T22:42:31.138Z,100415.56
2022-11-19T22:51:24.224Z,100369.88
2022-11-19T22:54:27.095Z,100371.47
2022-11-19T22:57:29.574Z,100354.53
2022-11-19T23:00:46.433Z,100375.13
2022-11-19T23:03:49.172Z,100365.75
2022-11-19T23:06:52.030Z,100380.88
2022-11-19T23:09:54.416Z,100374.31
2022-11-19T23:13:15.408Z,100365.19
2022-11-19T23:16:19.273Z,100383.75
2022-11-19T23:19:22.194Z,100388.41
2022-11-19T23:22:24.834Z,100377.72
2022-11-19T23:25:27.357Z,100383.22
2022-11-19T23:28:32.262Z,100356.59
2022-11-19T23:31:37.801Z,100353.97
2022-11-19T23:34:40.183Z,100363.66
2022-11-19T23:37:42.672Z,100364.97
2022-11-19T23:40:45.280Z,100356.34
2022-11-19T23:43:48.395Z,100340.97
2022-11-19T23:46:50.752Z,100321.59
2022-11-19T23:49:53.429Z,100354.22
2022-11-19T23:52:55.835Z,100344.84
2022-11-19T23:55:58.493Z,100322.94
2022-11-19T23:59:01.952Z,100315.91
